Rossville, IL (60963)

2:35 PM CDT on April 27, 2017 (GMT -0500)
Weinard Farms | | Change Station

Elev 692 ft 40.39 °N, 87.57 °W | Updated 7 seconds ago

Overcast
Overcast
48.6 °F
Feels Like 44 °F
N
11.0
Wind Variable Wind from SW
Gusts 23.0 mph

Today
High -- | Low -- °F
--% Chance of Precip.
Yesterday
High -- | Low -- °F
Precip. -- in
Pressure 29.71 in
Visibility 10.0 miles
Clouds Scattered Clouds 1300 ft
Mostly Cloudy 2000 ft
Overcast 3200 ft
Windchill 44 °F
Dew Point 46 °F
Humidity 89%
Rainfall 0.07 in
Snow Depth Not available.
5:54 AM 7:42 PM
Waxing Crescent, 3% visible
METAR KDNV 271915Z AUTO 25011KT 10SM SCT013 BKN020 OVC032 10/07 A2971 RMK AO2 T00960071
Pressure 29.71 in
Visibility 10.0 miles
Clouds Scattered Clouds 1300 ft
Mostly Cloudy 2000 ft
Overcast 3200 ft
Windchill 44 °F
Dew Point 46 °F
Humidity 89%
Rainfall 0.07 in
Snow Depth Not available.
5:54 AM 7:42 PM
Waxing Crescent, 3% visible
METAR KDNV 271915Z AUTO 25011KT 10SM SCT013 BKN020 OVC032 10/07 A2971 RMK AO2 T00960071

Get Severe Weather Alerts

Thanks for signing up!

Be on the lookout for a verification email in your inbox.

You'll start receiving the daily forecast at 8 AM.

×

10-Day Weather Forecast

Almanac

Astronomy

Apr. 27, 2017 Rise Set
Actual Time
Civil Twilight
Nautical Twilight
Astronomical Twilight
Moon
Length of Visible Light
Length of Day
Tomorrow will be .
, % of the Moon is Illuminated

Today's Extremes

State Highs State Lows

Community

WunderPhotos

WunderBlog® & News

Nearby

Air Quality

  Air Quality AQ Index Pollutant
Not available.

Snow Depth

Station Depth Elevation

Earthquake Activity

City Distance Mag. Time & Date
Minimum magnitude displayed is 2.5.

Coastal Water Temperatures

Place Temperature

Stations

Nearby Weather Stations

Station Location Temp. Windchill Dew Point Humidity Wind Precip. Elev Updated Type
                   

Watches & Warnings

There are currently no watches in effect.